createdAt,value
2022-10-02T00:01:20.927Z,10.74
2022-10-02T00:06:48.474Z,10.52
2022-10-02T00:12:14.425Z,10.50
2022-10-02T00:17:40.525Z,10.48
2022-10-02T00:23:24.218Z,10.48
2022-10-02T00:28:51.331Z,10.35
2022-10-02T00:34:23.230Z,10.20
2022-10-02T00:40:11.922Z,10.17
2022-10-02T00:46:27.378Z,10.16
2022-10-02T00:51:56.999Z,10.18
2022-10-02T00:57:23.896Z,10.22
2022-10-02T01:02:55.095Z,10.24
2022-10-02T01:08:17.016Z,10.19
2022-10-02T01:13:37.907Z,10.12
2022-10-02T01:18:58.948Z,10.13
2022-10-02T01:24:32.217Z,10.14
2022-10-02T01:30:00.849Z,10.14
2022-10-02T01:35:26.416Z,10.13
2022-10-02T01:40:47.200Z,10.06
2022-10-02T01:46:21.749Z,10.01
2022-10-02T01:51:56.620Z,10.04
2022-10-02T01:57:36.221Z,9.99
2022-10-02T02:03:16.777Z,9.92
2022-10-02T02:08:45.895Z,9.91
2022-10-02T02:14:23.877Z,9.96
2022-10-02T02:19:53.080Z,9.97
2022-10-02T02:25:26.275Z,10.00
2022-10-02T02:30:52.866Z,10.00
2022-10-02T02:36:19.318Z,10.01
2022-10-02T02:41:47.176Z,9.99
2022-10-02T02:47:17.079Z,9.87
2022-10-02T02:52:59.564Z,9.86
2022-10-02T02:58:39.300Z,9.85
2022-10-02T03:04:00.228Z,9.86
2022-10-02T03:09:22.944Z,9.82
2022-10-02T03:14:56.770Z,9.82
2022-10-02T03:20:33.207Z,9.90
2022-10-02T03:26:03.126Z,9.97
2022-10-02T03:31:28.256Z,9.99
2022-10-02T03:36:48.810Z,10.04
2022-10-02T03:42:13.155Z,10.05
2022-10-02T03:47:33.790Z,10.05
2022-10-02T03:52:54.705Z,10.05
2022-10-02T03:58:18.403Z,10.08
2022-10-02T04:03:57.713Z,10.11
2022-10-02T04:09:27.858Z,10.02
2022-10-02T04:14:57.880Z,10.11
2022-10-02T04:20:25.983Z,10.08
2022-10-02T04:25:57.352Z,10.10
2022-10-02T04:31:18.091Z,10.14
2022-10-02T04:37:03.434Z,10.19
2022-10-02T04:42:39.752Z,10.28
2022-10-02T04:48:03.492Z,10.20
2022-10-02T04:53:39.498Z,10.23
2022-10-02T04:59:22.255Z,10.29
2022-10-02T05:04:55.709Z,10.22
2022-10-02T05:10:28.929Z,10.21
2022-10-02T05:16:28.335Z,10.18
2022-10-02T05:22:26.207Z,10.20
2022-10-02T05:28:12.129Z,10.20
2022-10-02T05:33:38.793Z,10.27
2022-10-02T05:39:12.102Z,10.28
2022-10-02T05:45:11.713Z,10.30
2022-10-02T05:50:36.808Z,10.26
2022-10-02T05:56:09.634Z,10.30
2022-10-02T06:01:34.040Z,10.34
2022-10-02T06:07:06.789Z,10.48
2022-10-02T06:12:39.746Z,10.61
2022-10-02T06:18:09.089Z,10.65
2022-10-02T06:23:39.680Z,10.70
2022-10-02T06:29:46.846Z,10.82
2022-10-02T06:35:16.261Z,10.95
2022-10-02T06:40:48.016Z,11.16
2022-10-02T06:46:18.131Z,11.37
2022-10-02T06:51:41.781Z,11.45
2022-10-02T06:57:25.482Z,11.47
2022-10-02T07:03:06.745Z,11.55
2022-10-02T07:09:01.119Z,11.65
2022-10-02T07:14:39.476Z,11.76
2022-10-02T07:20:18.836Z,11.77
2022-10-02T07:25:42.593Z,11.84
2022-10-02T07:31:34.006Z,12.01
2022-10-02T07:37:08.747Z,12.17
2022-10-02T07:42:40.254Z,12.35
2022-10-02T07:48:18.926Z,12.46
2022-10-02T07:53:49.897Z,12.52
2022-10-02T07:59:16.164Z,12.62
2022-10-02T08:04:37.656Z,12.65
2022-10-02T08:10:03.198Z,12.67
2022-10-02T08:15:25.298Z,12.83
2022-10-02T08:20:48.503Z,12.92
2022-10-02T08:26:35.329Z,13.11
2022-10-02T08:31:56.786Z,13.29
2022-10-02T08:37:29.466Z,13.29
2022-10-02T08:43:04.938Z,13.24
2022-10-02T08:48:39.646Z,13.13
2022-10-02T08:54:26.026Z,13.11
2022-10-02T08:59:58.742Z,13.19
2022-10-02T09:05:23.243Z,13.31
2022-10-02T09:11:21.503Z,13.50
2022-10-02T09:17:02.152Z,13.55
2022-10-02T09:22:46.468Z,13.64
2022-10-02T09:28:49.909Z,13.79
2022-10-02T09:34:58.438Z,14.01
2022-10-02T09:40:30.972Z,14.14
2022-10-02T09:45:54.880Z,14.23
2022-10-02T09:51:43.966Z,14.09
2022-10-02T09:57:38.767Z,14.03
2022-10-02T10:03:09.419Z,14.06
2022-10-02T10:08:35.999Z,14.01
2022-10-02T10:14:18.912Z,13.89
2022-10-02T10:20:03.280Z,13.72
2022-10-02T10:25:51.394Z,13.53
2022-10-02T10:31:18.335Z,13.43
2022-10-02T10:37:25.127Z,13.41
2022-10-02T10:43:07.615Z,13.43
2022-10-02T10:48:51.000Z,13.48
2022-10-02T10:54:24.325Z,13.46
2022-10-02T11:00:03.939Z,13.37
2022-10-02T11:06:05.176Z,13.26
2022-10-02T11:11:44.772Z,13.27
2022-10-02T11:17:08.749Z,13.37
2022-10-02T11:22:41.837Z,13.44
2022-10-02T11:28:24.315Z,13.40
2022-10-02T11:34:35.323Z,13.48
2022-10-02T11:40:25.130Z,13.50
2022-10-02T11:46:23.242Z,13.49
2022-10-02T11:52:10.219Z,13.47
2022-10-02T11:58:07.630Z,13.46
2022-10-02T12:03:44.959Z,13.59
2022-10-02T12:09:22.807Z,13.66
2022-10-02T12:14:49.581Z,13.76
2022-10-02T12:20:44.123Z,13.82
2022-10-02T12:26:55.257Z,13.87
2022-10-02T12:32:38.559Z,13.90
2022-10-02T12:38:02.453Z,13.91
2022-10-02T12:43:55.598Z,13.92
2022-10-02T12:49:37.901Z,13.96
2022-10-02T12:55:26.426Z,13.98
2022-10-02T13:01:43.211Z,13.96
2022-10-02T13:07:41.269Z,13.84
2022-10-02T13:13:17.504Z,13.85
2022-10-02T13:19:02.561Z,13.90
2022-10-02T13:24:35.348Z,13.93
2022-10-02T13:30:11.181Z,13.84
2022-10-02T13:35:41.372Z,13.74
2022-10-02T13:41:16.886Z,13.65
2022-10-02T13:47:09.887Z,13.46
2022-10-02T13:52:30.453Z,13.46
2022-10-02T13:58:13.065Z,13.38
2022-10-02T14:04:10.913Z,13.40
2022-10-02T14:09:51.647Z,13.43
2022-10-02T14:15:30.744Z,13.56
2022-10-02T14:20:55.953Z,13.40
2022-10-02T14:26:34.872Z,13.34
2022-10-02T14:32:24.770Z,13.29
2022-10-02T14:38:10.140Z,13.27
2022-10-02T14:43:34.083Z,13.22
2022-10-02T14:49:19.379Z,13.16
2022-10-02T14:54:46.411Z,13.18
2022-10-02T15:00:18.352Z,13.17
2022-10-02T15:05:47.887Z,13.13
2022-10-02T15:11:19.035Z,13.04
2022-10-02T15:17:05.540Z,13.08
2022-10-02T15:22:31.721Z,13.10
2022-10-02T15:28:34.548Z,13.07
2022-10-02T15:34:13.716Z,13.01
2022-10-02T15:39:53.008Z,13.06
2022-10-02T15:45:27.868Z,13.00
2022-10-02T15:51:29.599Z,13.03
2022-10-02T15:57:12.141Z,13.16
2022-10-02T16:02:54.154Z,13.01
2022-10-02T16:08:27.151Z,12.94
2022-10-02T16:14:09.313Z,12.92
2022-10-02T16:19:30.372Z,12.88
2022-10-02T16:25:12.507Z,12.88
2022-10-02T16:31:02.091Z,12.78
2022-10-02T16:36:51.137Z,12.84
2022-10-02T16:42:32.410Z,12.77
2022-10-02T16:48:02.151Z,12.71
2022-10-02T16:53:31.307Z,12.69
2022-10-02T16:59:12.218Z,12.67
2022-10-02T17:04:35.600Z,12.70
2022-10-02T17:10:19.178Z,12.68
2022-10-02T17:15:48.979Z,12.59
2022-10-02T17:21:14.431Z,12.60
2022-10-02T17:26:49.681Z,12.72
2022-10-02T17:32:11.227Z,12.74
2022-10-02T17:37:59.267Z,12.65
2022-10-02T17:43:31.395Z,12.68
2022-10-02T17:49:45.579Z,12.66
2022-10-02T17:56:01.012Z,12.71
2022-10-02T18:01:50.645Z,12.63
2022-10-02T18:07:38.975Z,12.54
2022-10-02T18:13:06.445Z,12.58
2022-10-02T18:18:34.412Z,12.47
2022-10-02T18:24:16.397Z,12.43
2022-10-02T18:30:02.433Z,12.39
2022-10-02T18:35:34.920Z,12.42
2022-10-02T18:41:02.322Z,12.36
2022-10-02T18:46:50.261Z,12.24
2022-10-02T18:52:48.613Z,12.15
2022-10-02T18:58:24.609Z,12.04
2022-10-02T19:03:57.463Z,11.99
2022-10-02T19:09:30.993Z,11.95
2022-10-02T19:14:56.197Z,11.87
2022-10-02T19:20:42.181Z,11.94
2022-10-02T19:26:24.626Z,11.91
2022-10-02T19:31:45.681Z,11.84
2022-10-02T19:37:07.926Z,11.90
2022-10-02T19:42:34.147Z,11.93
2022-10-02T19:48:07.033Z,11.89
2022-10-02T19:53:35.047Z,11.91
2022-10-02T19:59:02.890Z,11.90
2022-10-02T20:04:27.947Z,11.98
2022-10-02T20:09:58.359Z,12.04
2022-10-02T20:16:09.675Z,11.92
2022-10-02T20:21:48.396Z,11.96
2022-10-02T20:27:24.415Z,12.02
2022-10-02T20:33:12.411Z,11.98
2022-10-02T20:38:47.827Z,11.96
2022-10-02T20:44:08.535Z,11.79
2022-10-02T20:49:52.805Z,11.65
2022-10-02T20:55:33.503Z,11.60
2022-10-02T21:01:15.948Z,11.44
2022-10-02T21:06:40.395Z,11.34
2022-10-02T21:12:26.890Z,11.49
2022-10-02T21:18:06.959Z,11.43
2022-10-02T21:24:02.144Z,11.34
2022-10-02T21:29:47.813Z,11.25
2022-10-02T21:35:35.567Z,11.07
2022-10-02T21:41:19.655Z,10.95
2022-10-02T21:46:58.993Z,10.96
2022-10-02T21:52:37.462Z,10.98
2022-10-02T21:58:07.331Z,10.89
2022-10-02T22:03:56.468Z,10.80
2022-10-02T22:09:29.245Z,10.79
2022-10-02T22:15:00.102Z,10.78
2022-10-02T22:20:24.081Z,10.80
2022-10-02T22:25:44.615Z,10.96
2022-10-02T22:31:41.634Z,10.98
2022-10-02T22:37:37.715Z,11.08
2022-10-02T22:43:07.626Z,11.22
2022-10-02T22:48:43.535Z,11.26
2022-10-02T22:54:31.873Z,11.28
2022-10-02T23:00:18.497Z,11.39
2022-10-02T23:05:57.143Z,11.46
2022-10-02T23:11:29.855Z,11.37
2022-10-02T23:17:01.880Z,11.31
2022-10-02T23:22:40.023Z,11.19
2022-10-02T23:28:15.754Z,11.11
2022-10-02T23:33:51.224Z,11.07
2022-10-02T23:39:21.740Z,10.90
2022-10-02T23:44:59.965Z,10.78
2022-10-02T23:50:33.225Z,10.74
2022-10-02T23:56:12.319Z,10.67
